Impacts METAR Board INFO
IDs:

KMCO - Orlando Intl, FL, US

Updated at: 2027 UTC 22 Feb 2018
Potential Impact None Slight Moderate High
Time22/08Z 22/09Z 22/10Z 22/11Z 22/12Z 22/13Z 22/14Z 22/15Z 22/16Z 22/17Z 22/18Z 22/19Z 22/20Z
VIS10 10 10 10 10 10 10 10 10 10 10 10 10
CIG-- -- 49 47 -- -- -- -- -- -- -- -- --
CoverFEWFEWBKNBKNSCTSCTFEWSCTSCTSCTSCTSCTFEW
FltCatVFRVFRVFRVFRVFRVFRVFRVFRVFRVFRVFRVFRVFR
WX--------------------------
WDir70706070707060110120110110120110
WSpd5 5 5 7 5 4 5 10 9 9 7 10 10
WGst-- -- -- -- -- -- -- 21 -- -- -- -- --
Raw hourly METARs
KMCO 220753Z 07005KT 10SM FEW027 19/18 A3037 RMK AO2 SLP282 T01890183
KMCO 220853Z 07005KT 10SM FEW030 19/18 A3036 RMK AO2 SLP278 T01890183 56012
KMCO 220953Z 06005KT 10SM FEW015 SCT031 BKN049 20/19 A3036 RMK AO2 SLP279 T02000189
KMCO 221053Z 07007KT 10SM FEW018 SCT039 BKN047 21/19 A3037 RMK AO2 SLP283 T02060194
KMCO 221153Z 07005KT 10SM FEW023 SCT050 19/19 A3039 RMK AO2 SLP289 T01940189 10206 20189 53011
KMCO 221253Z 07004KT 10SM SCT029 SCT045 21/19 A3040 RMK AO2 SLP293 T02110194
KMCO 221353Z 06005KT 10SM FEW025 23/20 A3041 RMK AO2 SLP296 T02280200
KMCO 221453Z 11010G21KT 10SM SCT022 25/19 A3042 RMK AO2 SLP299 T02500189 51009
KMCO 221553Z 12009KT 10SM SCT030 27/17 A3042 RMK AO2 SLP298 T02670172
KMCO 221653Z 11009KT 10SM SCT038 28/17 A3040 RMK AO2 SLP294 T02780167
KMCO 221753Z 11007KT 10SM FEW042 SCT050 28/17 A3038 RMK AO2 SLP287 T02830167 10289 20194 58012
KMCO 221853Z 12010KT 10SM SCT045 28/16 A3035 RMK AO2 SLP276 T02830161
KMCO 221953Z 11010KT 10SM FEW050 29/17 A3032 RMK AO2 SLP266 T02940167